Terminal Aerodrome Forecast
Issued by NWS

Home | Current Version | Previous Version | Text Only | Print | Product List | Glossary On
Versions: 1 2 3 4 5 6 7 8 9 10 11 12 13 14 15 16
000
FTUS43 KMPX 211100
TAFRWF
TAF
KRWF 211140Z 2112/2212 16012KT 5SM BR OVC004
     FM211900 16015KT 6SM BR SCT008 OVC011
     FM220200 15015KT 6SM BR OVC008
     FM220500 14013KT 3SM -RA BR OVC004=

USA.gov is the U.S. government's official web portal to all federal, state and local government web resources and services.